Time;durP1;ratioP1;P1;durP2;ratioP2;P2;SDS_P1;SDS_P2;PMS_P1;PMS_P2;Temp;Humidity;BMP_temperature;BMP_pressure;BME280_temperature;BME280_humidity;BME280_pressure;Samples;Min_cycle;Max_cycle;Signal;HPM_P1;HPM_P2
2021/12/14 00:00:56;;;;;;;51.13;6.40;;;;;;;;;;4995791;28;20053;-66
2021/12/14 00:03:28;;;;;;;41.13;6.22;;;;;;;;;;4995438;28;20069;-63
2021/12/14 00:05:55;;;;;;;42.58;5.53;;;;;;;;;;4992884;28;20135;-68
2021/12/14 00:08:25;;;;;;;52.83;6.05;;;;;;;;;;4992624;28;20101;-66
2021/12/14 00:16:06;;;;;;;40.03;5.38;;;;;;;;;;4995510;28;20741;-67
2021/12/14 00:18:34;;;;;;;36.17;6.53;;;;;;;;;;4993906;28;20116;-66
2021/12/14 00:21:05;;;;;;;67.65;7.43;;;;;;;;;;4995433;28;20022;-64
2021/12/14 00:26:22;;;;;;;52.47;5.68;;;;;;;;;;4992209;28;20037;-67
2021/12/14 00:28:51;;;;;;;39.78;5.50;;;;;;;;;;4985751;28;20030;-66
2021/12/14 00:31:19;;;;;;;41.88;5.72;;;;;;;;;;4990645;28;20030;-70
2021/12/14 00:33:51;;;;;;;35.08;5.22;;;;;;;;;;4993998;28;20106;-65
2021/12/14 00:36:19;;;;;;;49.38;5.72;;;;;;;;;;4995529;28;20481;-61
2021/12/14 00:38:49;;;;;;;35.35;5.18;;;;;;;;;;4996959;28;20091;-66
2021/12/14 00:41:19;;;;;;;45.15;5.97;;;;;;;;;;4995156;28;20045;-67
2021/12/14 00:43:48;;;;;;;40.45;6.40;;;;;;;;;;4996243;28;20084;-66
2021/12/14 00:46:17;;;;;;;36.05;6.43;;;;;;;;;;4994753;28;20045;-61
2021/12/14 00:48:45;;;;;;;40.38;6.82;;;;;;;;;;4998849;28;20092;-62
2021/12/14 00:51:13;;;;;;;43.42;6.72;;;;;;;;;;4998949;28;20040;-71
2021/12/14 00:53:41;;;;;;;29.80;6.07;;;;;;;;;;4995273;28;20049;-61
2021/12/14 00:56:11;;;;;;;36.05;5.82;;;;;;;;;;5001788;28;20092;-61
2021/12/14 00:58:40;;;;;;;38.75;6.93;;;;;;;;;;4993961;28;20084;-62
2021/12/14 01:01:16;;;;;;;35.13;6.78;;;;;;;;;;4997654;28;20408;-63
2021/12/14 01:03:46;;;;;;;44.53;7.03;;;;;;;;;;5009080;28;20088;-63
2021/12/14 01:06:45;;;;;;;45.35;8.65;;;;;;;;;;4993595;28;20046;-64
2021/12/14 01:09:18;;;;;;;40.13;8.38;;;;;;;;;;4994987;28;20506;-65
2021/12/14 01:11:47;;;;;;;54.50;8.18;;;;;;;;;;5004082;28;20026;-62
2021/12/14 01:14:41;;;;;;;57.05;9.07;;;;;;;;;;4994440;28;20026;-63
2021/12/14 01:17:25;;;;;;;36.35;6.60;;;;;;;;;;4992639;28;20500;-61
2021/12/14 01:19:57;;;;;;;52.47;12.60;;;;;;;;;;4995573;28;20038;-65
2021/12/14 01:25:15;;;;;;;38.83;8.32;;;;;;;;;;4994722;28;20129;-62
2021/12/14 01:27:52;;;;;;;37.47;9.90;;;;;;;;;;4993541;28;20022;-62
2021/12/14 01:30:22;;;;;;;38.47;7.85;;;;;;;;;;5002931;28;20026;-65
2021/12/14 01:32:50;;;;;;;45.97;8.75;;;;;;;;;;5011596;28;20030;-61
2021/12/14 01:35:20;;;;;;;42.25;7.93;;;;;;;;;;4995080;28;20476;-60
2021/12/14 01:37:59;;;;;;;54.00;7.85;;;;;;;;;;5002410;28;20026;-61
2021/12/14 01:43:14;;;;;;;38.58;7.70;;;;;;;;;;4993654;28;20049;-62
2021/12/14 01:45:41;;;;;;;48.83;8.05;;;;;;;;;;5003477;28;20088;-62
2021/12/14 01:48:09;;;;;;;32.67;7.40;;;;;;;;;;4997416;28;20422;-63
2021/12/14 01:50:44;;;;;;;40.20;7.03;;;;;;;;;;5004807;28;20030;-63
2021/12/14 01:53:13;;;;;;;34.63;6.45;;;;;;;;;;5002580;28;20108;-62
2021/12/14 01:55:43;;;;;;;38.53;6.65;;;;;;;;;;4994527;28;20105;-61
2021/12/14 01:58:12;;;;;;;49.58;7.90;;;;;;;;;;4994382;28;20445;-63
2021/12/14 02:00:46;;;;;;;44.08;6.85;;;;;;;;;;4992374;28;20034;-63
2021/12/14 02:03:15;;;;;;;35.17;5.78;;;;;;;;;;4992182;28;20040;-63
2021/12/14 02:05:49;;;;;;;31.08;5.78;;;;;;;;;;5002117;28;20622;-63
2021/12/14 02:08:18;;;;;;;36.67;6.53;;;;;;;;;;5000540;28;20548;-62
2021/12/14 02:10:46;;;;;;;22.27;5.53;;;;;;;;;;5001772;28;20030;-63
2021/12/14 02:13:22;;;;;;;35.58;6.60;;;;;;;;;;5015177;28;20636;-62
2021/12/14 02:15:50;;;;;;;29.95;5.88;;;;;;;;;;4997547;28;20105;-63
2021/12/14 02:18:20;;;;;;;37.90;5.35;;;;;;;;;;5003613;28;20027;-63
2021/12/14 02:21:07;;;;;;;39.28;5.70;;;;;;;;;;4995178;28;20654;-62
2021/12/14 02:23:37;;;;;;;28.77;5.20;;;;;;;;;;4999357;28;20101;-62
2021/12/14 02:26:15;;;;;;;41.85;6.05;;;;;;;;;;4997409;28;20049;-62
2021/12/14 02:28:43;;;;;;;38.22;6.53;;;;;;;;;;5003070;28;20015;-63
2021/12/14 02:31:13;;;;;;;46.58;6.72;;;;;;;;;;4995040;28;20095;-64
2021/12/14 02:33:42;;;;;;;38.33;6.10;;;;;;;;;;5016466;28;20085;-63
2021/12/14 02:36:14;;;;;;;34.60;5.00;;;;;;;;;;5000050;28;20092;-63
2021/12/14 02:38:55;;;;;;;38.53;5.57;;;;;;;;;;4999463;28;20044;-64
2021/12/14 02:41:23;;;;;;;25.67;4.87;;;;;;;;;;4997114;28;20029;-63
2021/12/14 02:43:55;;;;;;;33.28;5.40;;;;;;;;;;4998827;28;20489;-63
2021/12/14 02:46:38;;;;;;;31.92;5.93;;;;;;;;;;4999172;28;20031;-61
2021/12/14 02:49:10;;;;;;;21.60;4.28;;;;;;;;;;5000751;28;20128;-62
2021/12/14 02:51:45;;;;;;;31.25;5.43;;;;;;;;;;4998419;28;20512;-64
2021/12/14 02:54:14;;;;;;;21.30;4.70;;;;;;;;;;4997467;28;20030;-63
2021/12/14 02:56:43;;;;;;;34.42;5.13;;;;;;;;;;4997880;28;20140;-63
2021/12/14 02:59:16;;;;;;;30.42;5.00;;;;;;;;;;4997220;28;20515;-61
2021/12/14 03:01:46;;;;;;;27.60;4.32;;;;;;;;;;5013926;28;20096;-63
2021/12/14 03:04:15;;;;;;;30.63;5.25;;;;;;;;;;4996098;28;20038;-60
2021/12/14 03:06:47;;;;;;;54.28;5.50;;;;;;;;;;4997044;28;20022;-59
2021/12/14 03:09:32;;;;;;;42.85;4.80;;;;;;;;;;4997375;28;20112;-64
2021/12/14 03:12:02;;;;;;;44.58;5.57;;;;;;;;;;5001568;28;20049;-62
2021/12/14 03:14:30;;;;;;;32.13;5.10;;;;;;;;;;4994313;28;20053;-63
2021/12/14 03:16:57;;;;;;;37.70;5.93;;;;;;;;;;4997637;28;20580;-62
2021/12/14 03:19:25;;;;;;;33.10;5.13;;;;;;;;;;5000030;28;20047;-67
2021/12/14 03:21:52;;;;;;;26.27;4.88;;;;;;;;;;4993363;28;20486;-66
2021/12/14 03:24:20;;;;;;;30.52;4.25;;;;;;;;;;4995497;28;20031;-65
2021/12/14 03:26:49;;;;;;;26.45;4.78;;;;;;;;;;5000962;28;20105;-67
2021/12/14 03:29:20;;;;;;;21.92;4.68;;;;;;;;;;4998233;28;20087;-65
2021/12/14 03:31:50;;;;;;;25.55;4.35;;;;;;;;;;5000092;28;20030;-66
2021/12/14 03:34:20;;;;;;;23.25;4.68;;;;;;;;;;5000340;28;20026;-65
2021/12/14 03:36:50;;;;;;;32.45;5.30;;;;;;;;;;4996314;28;20022;-65
2021/12/14 03:39:21;;;;;;;30.58;4.55;;;;;;;;;;4996436;28;20034;-59
2021/12/14 03:41:51;;;;;;;23.63;4.07;;;;;;;;;;4998743;28;20038;-63
2021/12/14 03:44:19;;;;;;;36.08;4.20;;;;;;;;;;4993826;28;20045;-58
2021/12/14 03:46:48;;;;;;;24.40;4.10;;;;;;;;;;4993613;28;20030;-66
2021/12/14 03:49:17;;;;;;;35.10;3.85;;;;;;;;;;4993865;28;20040;-62
2021/12/14 03:51:46;;;;;;;24.65;4.07;;;;;;;;;;4995274;28;20117;-66
2021/12/14 03:54:15;;;;;;;25.15;3.75;;;;;;;;;;4997307;28;20072;-66
2021/12/14 03:56:49;;;;;;;18.45;3.90;;;;;;;;;;4993527;28;20026;-67
2021/12/14 03:59:17;;;;;;;17.50;3.50;;;;;;;;;;4982227;28;20029;-65
2021/12/14 04:01:46;;;;;;;23.27;3.97;;;;;;;;;;4994403;28;20038;-67
2021/12/14 04:04:18;;;;;;;19.38;3.47;;;;;;;;;;4998113;28;20050;-58
2021/12/14 04:06:45;;;;;;;;;;;;;;;;;;5000645;28;20485;-65
2021/12/14 04:09:14;;;;;;;19.85;3.20;;;;;;;;;;5003356;28;19913;-65
2021/12/14 04:11:42;;;;;;;14.30;3.50;;;;;;;;;;4995976;28;21815;-66
2021/12/14 04:14:09;;;;;;;16.15;3.03;;;;;;;;;;4996110;28;20038;-65
2021/12/14 04:16:38;;;;;;;13.35;3.40;;;;;;;;;;4996632;28;20088;-66
2021/12/14 04:19:09;;;;;;;20.27;3.75;;;;;;;;;;4993187;28;20042;-65
2021/12/14 04:21:40;;;;;;;18.38;3.40;;;;;;;;;;4993173;28;20406;-66
2021/12/14 04:24:11;;;;;;;15.80;3.45;;;;;;;;;;5000792;28;20053;-67
2021/12/14 04:26:45;;;;;;;20.73;3.70;;;;;;;;;;4994455;28;20029;-65
2021/12/14 04:29:14;;;;;;;16.58;3.80;;;;;;;;;;4992271;28;20034;-66
2021/12/14 04:31:43;;;;;;;21.85;3.80;;;;;;;;;;4997275;28;20095;-66
2021/12/14 04:34:14;;;;;;;14.35;2.67;;;;;;;;;;5000554;28;20080;-67
2021/12/14 04:36:44;;;;;;;13.50;3.38;;;;;;;;;;4999940;28;20033;-67
2021/12/14 04:53:07;;;;;;;14.48;3.80;;;;;;;;;;5010927;28;20037;-67
2021/12/14 04:55:35;;;;;;;13.98;3.40;;;;;;;;;;5010519;28;20112;-66
2021/12/14 04:58:03;;;;;;;12.00;3.55;;;;;;;;;;4999826;28;20018;-64
2021/12/14 05:00:38;;;;;;;22.63;3.55;;;;;;;;;;5000842;28;20155;-62
2021/12/14 05:03:11;;;;;;;18.75;3.90;;;;;;;;;;5009086;28;20172;-65
2021/12/14 05:05:46;;;;;;;15.27;3.90;;;;;;;;;;5006891;28;20498;-66
2021/12/14 05:10:54;;;;;;;17.63;3.83;;;;;;;;;;4998358;28;20030;-65
2021/12/14 05:13:34;;;;;;;15.13;4.03;;;;;;;;;;5011982;28;20092;-62
2021/12/14 05:16:03;;;;;;;14.30;3.65;;;;;;;;;;5008261;28;20033;-65
2021/12/14 05:18:37;;;;;;;16.40;3.80;;;;;;;;;;5011692;28;20032;-67
2021/12/14 05:21:04;;;;;;;19.17;4.00;;;;;;;;;;4994342;28;20023;-65
2021/12/14 05:23:36;;;;;;;10.25;3.47;;;;;;;;;;4992932;28;20050;-61
2021/12/14 05:26:06;;;;;;;21.17;3.90;;;;;;;;;;5011752;28;20037;-66
2021/12/14 05:28:34;;;;;;;22.40;3.85;;;;;;;;;;5012990;28;20022;-67
2021/12/14 05:31:03;;;;;;;10.13;3.63;;;;;;;;;;4995513;28;20023;-67
2021/12/14 05:33:32;;;;;;;12.98;3.97;;;;;;;;;;4994548;28;20038;-66
2021/12/14 05:36:03;;;;;;;12.35;3.90;;;;;;;;;;5001485;28;20026;-66
2021/12/14 05:38:52;;;;;;;15.15;4.10;;;;;;;;;;4991730;28;20143;-67
2021/12/14 05:44:10;;;;;;;18.55;3.40;;;;;;;;;;5003067;28;20544;-66
2021/12/14 05:46:37;;;;;;;18.77;4.10;;;;;;;;;;5004715;28;20034;-67
2021/12/14 05:49:08;;;;;;;15.98;4.40;;;;;;;;;;4995956;28;20033;-67
2021/12/14 05:51:36;;;;;;;20.15;3.80;;;;;;;;;;4996083;28;20022;-66
2021/12/14 05:54:04;;;;;;;26.60;4.20;;;;;;;;;;5004287;28;20072;-67
2021/12/14 05:56:32;;;;;;;21.38;4.57;;;;;;;;;;5124425;23;20060;-66
2021/12/14 05:59:00;;;;;;;19.58;4.45;;;;;;;;;;5034959;28;20054;-64
2021/12/14 06:01:30;;;;;;;18.30;4.03;;;;;;;;;;5049868;28;20037;-66
2021/12/14 06:04:02;;;;;;;15.65;3.83;;;;;;;;;;5033971;28;20096;-66
2021/12/14 06:06:37;;;;;;;12.20;3.60;;;;;;;;;;5033452;28;20024;-66
2021/12/14 06:09:10;;;;;;;21.20;3.75;;;;;;;;;;5030347;28;20033;-66
2021/12/14 06:11:37;;;;;;;12.60;3.38;;;;;;;;;;5053966;28;20029;-65
2021/12/14 06:14:05;;;;;;;16.35;2.80;;;;;;;;;;5053875;28;20447;-66
2021/12/14 06:16:35;;;;;;;12.55;2.63;;;;;;;;;;5047616;28;20505;-66
2021/12/14 06:19:15;;;;;;;9.80;2.83;;;;;;;;;;5033825;28;20026;-65
2021/12/14 06:21:42;;;;;;;14.93;2.65;;;;;;;;;;5033078;28;20056;-63
2021/12/14 06:24:10;;;;;;;6.82;2.47;;;;;;;;;;5033896;28;20075;-64
2021/12/14 06:26:45;;;;;;;10.57;2.60;;;;;;;;;;5034016;28;20076;-66
2021/12/14 06:29:17;;;;;;;7.00;2.13;;;;;;;;;;5034024;28;20092;-67
2021/12/14 06:31:45;;;;;;;12.95;2.63;;;;;;;;;;5040444;28;20496;-65
2021/12/14 06:34:16;;;;;;;11.35;2.50;;;;;;;;;;5052931;28;20033;-66
2021/12/14 06:37:04;;;;;;;9.93;2.13;;;;;;;;;;5053794;28;20021;-65
2021/12/14 06:39:51;;;;;;;14.32;3.10;;;;;;;;;;5045520;28;20093;-66
2021/12/14 06:42:18;;;;;;;8.63;2.28;;;;;;;;;;5032545;28;20061;-66
2021/12/14 06:44:46;;;;;;;7.90;1.55;;;;;;;;;;5034060;28;20028;-66
2021/12/14 06:47:13;;;;;;;9.40;2.22;;;;;;;;;;5042504;28;20439;-64
2021/12/14 06:49:41;;;;;;;5.53;1.70;;;;;;;;;;5052928;28;20021;-59
2021/12/14 06:52:08;;;;;;;8.13;1.65;;;;;;;;;;5053114;28;20024;-64
2021/12/14 06:54:36;;;;;;;9.65;1.80;;;;;;;;;;5045893;28;20116;-63
2021/12/14 06:57:04;;;;;;;8.35;1.67;;;;;;;;;;5020573;28;20088;-64
2021/12/14 06:59:31;;;;;;;5.88;1.30;;;;;;;;;;5013902;28;20022;-66
2021/12/14 07:02:00;;;;;;;6.05;1.63;;;;;;;;;;5013434;28;20034;-66
2021/12/14 07:04:34;;;;;;;7.63;1.85;;;;;;;;;;5013218;28;20118;-66
2021/12/14 07:07:03;;;;;;;4.82;1.75;;;;;;;;;;5014091;28;20026;-66
2021/12/14 07:09:33;;;;;;;4.15;1.67;;;;;;;;;;5017398;28;20032;-66
2021/12/14 07:12:01;;;;;;;8.43;1.45;;;;;;;;;;5033760;28;20037;-66
2021/12/14 07:14:28;;;;;;;10.85;1.75;;;;;;;;;;5033133;28;20056;-66
2021/12/14 07:16:57;;;;;;;5.15;1.50;;;;;;;;;;5029958;28;20385;-67
2021/12/14 07:19:42;;;;;;;6.75;1.40;;;;;;;;;;5013847;28;20026;-65
2021/12/14 07:22:13;;;;;;;9.05;1.40;;;;;;;;;;5011440;28;20046;-65
2021/12/14 07:24:41;;;;;;;8.83;1.53;;;;;;;;;;5001803;28;20017;-66
2021/12/14 07:27:25;;;;;;;6.00;1.40;;;;;;;;;;5033166;28;20026;-66
2021/12/14 07:29:53;;;;;;;6.95;1.20;;;;;;;;;;5033440;28;20030;-65
2021/12/14 07:32:41;;;;;;;6.15;1.38;;;;;;;;;;5027952;28;20026;-66
2021/12/14 07:35:19;;;;;;;8.20;1.60;;;;;;;;;;5013055;28;20026;-65
2021/12/14 07:37:48;;;;;;;8.55;1.40;;;;;;;;;;5013169;28;20043;-65
2021/12/14 07:40:16;;;;;;;9.63;1.20;;;;;;;;;;5021105;28;20469;-64
2021/12/14 07:42:43;;;;;;;9.20;1.25;;;;;;;;;;5031981;28;20037;-66
2021/12/14 07:45:11;;;;;;;6.57;1.30;;;;;;;;;;5033047;28;20381;-66
2021/12/14 07:47:50;;;;;;;12.55;1.63;;;;;;;;;;5026249;28;20030;-65
2021/12/14 07:50:18;;;;;;;7.72;1.40;;;;;;;;;;5031429;28;20045;-65
2021/12/14 07:52:45;;;;;;;8.75;1.15;;;;;;;;;;5032756;28;20036;-64
2021/12/14 07:55:12;;;;;;;8.23;1.40;;;;;;;;;;5031542;28;20352;-66
2021/12/14 07:57:40;;;;;;;6.15;1.42;;;;;;;;;;5012529;28;20034;-66
2021/12/14 08:00:16;;;;;;;3.92;1.38;;;;;;;;;;5012372;28;20018;-65
2021/12/14 08:02:45;;;;;;;6.68;1.48;;;;;;;;;;5017807;28;20048;-63
2021/12/14 08:05:23;;;;;;;7.22;1.08;;;;;;;;;;5032174;28;20030;-66
2021/12/14 08:08:16;;;;;;;6.65;1.38;;;;;;;;;;5032362;28;20029;-66
2021/12/14 08:10:48;;;;;;;7.75;1.42;;;;;;;;;;5023345;28;20077;-66
2021/12/14 08:13:21;;;;;;;4.00;1.40;;;;;;;;;;5012103;28;20084;-66
2021/12/14 08:15:52;;;;;;;6.82;1.10;;;;;;;;;;5013309;28;20033;-66
2021/12/14 08:18:33;;;;;;;8.93;1.00;;;;;;;;;;5020720;28;20032;-65
2021/12/14 08:21:04;;;;;;;7.90;1.30;;;;;;;;;;5032392;28;20096;-66
2021/12/14 08:23:34;;;;;;;4.78;1.13;;;;;;;;;;5031929;28;20033;-66
2021/12/14 08:26:01;;;;;;;7.30;1.27;;;;;;;;;;5022042;28;20030;-65
2021/12/14 08:28:29;;;;;;;4.10;0.88;;;;;;;;;;5010979;28;20065;-61
2021/12/14 08:31:06;;;;;;;7.07;1.13;;;;;;;;;;5012748;28;20026;-62
2021/12/14 08:33:34;;;;;;;6.10;1.48;;;;;;;;;;5012437;28;20029;-62
2021/12/14 08:36:03;;;;;;;6.80;0.95;;;;;;;;;;5012242;28;20030;-61
2021/12/14 08:38:33;;;;;;;4.50;0.77;;;;;;;;;;5011820;28;20026;-64
2021/12/14 08:41:12;;;;;;;5.68;1.50;;;;;;;;;;5020173;28;20029;-66
2021/12/14 08:43:48;;;;;;;5.53;0.70;;;;;;;;;;5031070;28;20080;-63
2021/12/14 08:46:21;;;;;;;4.57;0.80;;;;;;;;;;5031961;28;20044;-63
2021/12/14 08:48:51;;;;;;;3.92;0.80;;;;;;;;;;5020729;28;20033;-66
2021/12/14 08:51:20;;;;;;;4.55;1.02;;;;;;;;;;5011928;28;20033;-60
2021/12/14 08:53:56;;;;;;;5.05;0.95;;;;;;;;;;5011020;28;20034;-66
2021/12/14 08:56:25;;;;;;;7.38;0.82;;;;;;;;;;5009938;28;20022;-68
2021/12/14 08:58:55;;;;;;;6.97;1.20;;;;;;;;;;5011252;28;20482;-68
2021/12/14 09:01:26;;;;;;;8.52;1.00;;;;;;;;;;5010092;28;20052;-67
2021/12/14 09:04:02;;;;;;;3.63;0.90;;;;;;;;;;5019738;28;20037;-66
2021/12/14 09:06:31;;;;;;;3.58;0.88;;;;;;;;;;5029062;28;20121;-66
2021/12/14 09:09:02;;;;;;;8.40;1.30;;;;;;;;;;5030782;28;20025;-65
2021/12/14 09:11:31;;;;;;;2.45;0.77;;;;;;;;;;5020785;28;20033;-65
2021/12/14 09:13:59;;;;;;;10.13;1.30;;;;;;;;;;5010180;28;20107;-65
2021/12/14 09:16:28;;;;;;;5.93;0.70;;;;;;;;;;5010381;28;20058;-62
2021/12/14 09:19:16;;;;;;;5.88;1.05;;;;;;;;;;5018753;28;20074;-62
2021/12/14 09:21:45;;;;;;;10.07;0.85;;;;;;;;;;5029604;28;20065;-66
2021/12/14 09:24:16;;;;;;;8.23;0.90;;;;;;;;;;5030231;28;20036;-67
2021/12/14 09:26:45;;;;;;;8.15;1.13;;;;;;;;;;5020830;28;20021;-67
2021/12/14 09:29:14;;;;;;;9.48;1.10;;;;;;;;;;5011023;28;20038;-66
2021/12/14 09:31:43;;;;;;;16.80;1.77;;;;;;;;;;5016184;28;20021;-67
2021/12/14 09:34:12;;;;;;;22.05;1.63;;;;;;;;;;5011248;28;20162;-67
2021/12/14 09:36:39;;;;;;;14.57;1.45;;;;;;;;;;5012387;28;20091;-67
2021/12/14 09:39:10;;;;;;;7.10;1.45;;;;;;;;;;5021783;28;20025;-64
2021/12/14 09:41:38;;;;;;;19.90;1.50;;;;;;;;;;5030488;28;20376;-67
2021/12/14 09:44:08;;;;;;;16.40;1.88;;;;;;;;;;5023840;28;20077;-66
2021/12/14 09:46:36;;;;;;;10.50;1.30;;;;;;;;;;5009706;28;20022;-66
2021/12/14 09:49:06;;;;;;;11.13;1.17;;;;;;;;;;5013961;28;20030;-69
2021/12/14 09:51:36;;;;;;;15.27;1.63;;;;;;;;;;5011212;28;20029;-68
2021/12/14 09:54:07;;;;;;;10.68;1.63;;;;;;;;;;5009864;28;20083;-68
2021/12/14 09:56:37;;;;;;;13.80;2.17;;;;;;;;;;5010619;28;20033;-68
2021/12/14 09:59:06;;;;;;;10.07;1.38;;;;;;;;;;5010485;28;20025;-69
2021/12/14 10:01:36;;;;;;;22.15;2.08;;;;;;;;;;5012123;28;20030;-68
2021/12/14 10:04:07;;;;;;;22.90;2.70;;;;;;;;;;5008613;28;20088;-68
2021/12/14 10:06:39;;;;;;;28.90;3.05;;;;;;;;;;5002822;28;20034;-69
2021/12/14 10:09:25;;;;;;;35.53;4.30;;;;;;;;;;5009179;28;20026;-68
2021/12/14 10:14:52;;;;;;;17.85;2.10;;;;;;;;;;5009579;28;20092;-68
2021/12/14 10:17:21;;;;;;;31.67;2.33;;;;;;;;;;5028723;28;20030;-69
2021/12/14 10:19:49;;;;;;;35.95;4.05;;;;;;;;;;5029509;28;20400;-68
2021/12/14 10:22:33;;;;;;;47.20;3.58;;;;;;;;;;5029156;28;20172;-69
2021/12/14 10:25:05;;;;;;;45.30;3.90;;;;;;;;;;5029526;28;20037;-69
2021/12/14 10:27:33;;;;;;;52.17;3.85;;;;;;;;;;5019020;28;20045;-67
2021/12/14 10:30:04;;;;;;;31.05;2.92;;;;;;;;;;5024101;28;20044;-68
2021/12/14 10:32:33;;;;;;;22.02;2.80;;;;;;;;;;5033446;28;20029;-68
2021/12/14 10:35:03;;;;;;;18.40;1.60;;;;;;;;;;5014135;28;20037;-68
2021/12/14 10:37:52;;;;;;;14.40;1.55;;;;;;;;;;5014334;28;20028;-69
2021/12/14 10:43:15;;;;;;;9.45;1.00;;;;;;;;;;4994427;28;20380;-68
2021/12/14 10:45:46;;;;;;;9.68;1.15;;;;;;;;;;4993867;28;20080;-68
2021/12/14 10:48:13;;;;;;;10.15;0.95;;;;;;;;;;4999579;28;20033;-68
2021/12/14 10:50:43;;;;;;;6.68;1.50;;;;;;;;;;5028307;28;20074;-68
2021/12/14 10:53:12;;;;;;;10.32;1.23;;;;;;;;;;5033090;28;20228;-69
2021/12/14 10:55:45;;;;;;;8.88;0.98;;;;;;;;;;5029214;28;20108;-69
2021/12/14 10:58:14;;;;;;;5.43;1.27;;;;;;;;;;5013532;28;20042;-69
2021/12/14 11:00:48;;;;;;;9.90;1.27;;;;;;;;;;5017077;28;20026;-68
2021/12/14 11:03:19;;;;;;;11.68;1.27;;;;;;;;;;5012700;28;20058;-67
2021/12/14 11:05:51;;;;;;;7.75;0.93;;;;;;;;;;5011117;28;20026;-68
2021/12/14 11:11:08;;;;;;;9.02;1.10;;;;;;;;;;5010056;28;19991;-68
2021/12/14 11:13:41;;;;;;;7.13;1.05;;;;;;;;;;5000574;28;20041;-68
2021/12/14 11:16:17;;;;;;;3.08;0.95;;;;;;;;;;4995983;28;20100;-67
2021/12/14 11:18:46;;;;;;;6.55;0.93;;;;;;;;;;4997511;28;20522;-66
2021/12/14 11:21:15;;;;;;;4.55;1.10;;;;;;;;;;4999156;28;20038;-68
2021/12/14 11:23:49;;;;;;;7.10;0.77;;;;;;;;;;5015042;28;20049;-67
2021/12/14 11:26:22;;;;;;;7.38;1.00;;;;;;;;;;5014106;28;20026;-66
2021/12/14 11:28:53;;;;;;;8.93;1.20;;;;;;;;;;5005717;28;20075;-61
2021/12/14 11:31:23;;;;;;;6.88;1.13;;;;;;;;;;5015930;28;20029;-63
2021/12/14 11:34:09;;;;;;;6.85;0.75;;;;;;;;;;5018971;28;20022;-62
2021/12/14 11:36:36;;;;;;;4.38;0.68;;;;;;;;;;5022328;28;20037;-65
2021/12/14 11:39:11;;;;;;;6.40;1.00;;;;;;;;;;5010162;28;20095;-67
2021/12/14 11:41:44;;;;;;;5.00;0.73;;;;;;;;;;5011183;28;20034;-66
2021/12/14 11:44:15;;;;;;;8.98;0.75;;;;;;;;;;5011755;28;20055;-68
2021/12/14 11:46:52;;;;;;;4.28;0.60;;;;;;;;;;5013212;28;20026;-73
2021/12/14 11:49:22;;;;;;;3.30;0.75;;;;;;;;;;5013210;28;20049;-68
2021/12/14 11:51:50;;;;;;;2.63;0.70;;;;;;;;;;5012883;28;20036;-61
2021/12/14 11:54:19;;;;;;;2.45;0.60;;;;;;;;;;5012474;28;20034;-65
2021/12/14 11:56:49;;;;;;;1.27;0.57;;;;;;;;;;5012919;28;20061;-64
2021/12/14 11:59:18;;;;;;;6.68;0.60;;;;;;;;;;5011068;28;20363;-64
2021/12/14 12:01:50;;;;;;;10.88;0.95;;;;;;;;;;5010437;28;20037;-62
2021/12/14 12:04:22;;;;;;;3.00;0.80;;;;;;;;;;5010209;28;20504;-64
2021/12/14 12:09:35;;;;;;;12.90;1.60;;;;;;;;;;4990159;28;20031;-62
2021/12/14 12:12:06;;;;;;;23.42;1.20;;;;;;;;;;4992632;28;20095;-63
2021/12/14 12:14:35;;;;;;;11.50;0.88;;;;;;;;;;5009717;28;20084;-64
2021/12/14 12:17:11;;;;;;;7.68;0.88;;;;;;;;;;4993588;28;20124;-63
2021/12/14 12:19:40;;;;;;;9.45;0.88;;;;;;;;;;4991794;28;20026;-62
2021/12/14 12:22:16;;;;;;;6.82;0.82;;;;;;;;;;4990389;28;20034;-63
2021/12/14 12:24:43;;;;;;;10.13;1.05;;;;;;;;;;4991824;28;20081;-63
2021/12/14 12:27:29;;;;;;;20.88;1.02;;;;;;;;;;4998192;28;20474;-64
2021/12/14 12:30:20;;;;;;;5.18;0.90;;;;;;;;;;4995397;28;20113;-67
2021/12/14 12:32:48;;;;;;;13.20;2.13;;;;;;;;;;4997277;28;20030;-65
2021/12/14 12:35:23;;;;;;;12.60;1.92;;;;;;;;;;4990495;28;20087;-68
2021/12/14 12:37:50;;;;;;;22.70;2.40;;;;;;;;;;5006402;28;20037;-62
2021/12/14 12:40:18;;;;;;;17.20;2.20;;;;;;;;;;4993952;28;20030;-67
2021/12/14 12:42:45;;;;;;;17.13;2.88;;;;;;;;;;4997352;28;20042;-64
2021/12/14 12:45:26;;;;;;;17.10;2.40;;;;;;;;;;4994704;28;20018;-61
2021/12/14 12:47:54;;;;;;;10.35;1.73;;;;;;;;;;4989609;28;20037;-64
2021/12/14 12:50:25;;;;;;;16.70;1.85;;;;;;;;;;4976485;28;20050;-66
2021/12/14 12:52:52;;;;;;;11.35;2.00;;;;;;;;;;5005495;28;20046;-65
2021/12/14 12:55:28;;;;;;;11.05;1.88;;;;;;;;;;4995901;28;20382;-64
2021/12/14 12:57:58;;;;;;;6.38;1.73;;;;;;;;;;4989711;28;20050;-65
2021/12/14 13:00:35;;;;;;;14.73;2.00;;;;;;;;;;4991904;28;20356;-67
2021/12/14 13:03:12;;;;;;;10.32;1.80;;;;;;;;;;5006272;28;20045;-66
2021/12/14 13:05:42;;;;;;;9.25;1.55;;;;;;;;;;4991322;28;20085;-65
2021/12/14 13:08:12;;;;;;;8.75;1.48;;;;;;;;;;4998131;28;20127;-67
2021/12/14 13:10:58;;;;;;;8.00;1.70;;;;;;;;;;4998458;28;20030;-66
2021/12/14 13:13:25;;;;;;;13.38;1.40;;;;;;;;;;4992074;28;20022;-68
2021/12/14 13:16:07;;;;;;;8.25;1.40;;;;;;;;;;5006939;28;20109;-67
2021/12/14 13:18:45;;;;;;;10.35;1.83;;;;;;;;;;5011726;28;20030;-66
2021/12/14 13:21:15;;;;;;;12.80;1.63;;;;;;;;;;4991592;28;20026;-67
2021/12/14 13:23:46;;;;;;;16.52;2.45;;;;;;;;;;5006520;28;20639;-67
2021/12/14 13:26:25;;;;;;;20.73;2.35;;;;;;;;;;5012541;28;20030;-68
2021/12/14 13:28:53;;;;;;;12.82;1.70;;;;;;;;;;4998354;28;20113;-67
2021/12/14 13:31:32;;;;;;;13.60;2.28;;;;;;;;;;4999628;28;20034;-65
2021/12/14 13:34:00;;;;;;;8.77;2.00;;;;;;;;;;4988825;28;20446;-66
2021/12/14 13:36:27;;;;;;;10.52;1.95;;;;;;;;;;4998810;28;20086;-67
2021/12/14 13:38:54;;;;;;;10.02;1.50;;;;;;;;;;5002323;28;20026;-65
2021/12/14 13:41:29;;;;;;;9.68;1.88;;;;;;;;;;5004331;28;20022;-65
2021/12/14 13:43:56;;;;;;;13.98;2.08;;;;;;;;;;4993589;28;20042;-67
2021/12/14 13:46:23;;;;;;;13.77;2.03;;;;;;;;;;4996974;28;20082;-67
2021/12/14 13:48:50;;;;;;;11.35;1.73;;;;;;;;;;4989246;28;20034;-68
2021/12/14 13:51:19;;;;;;;10.77;1.55;;;;;;;;;;5012732;28;20030;-67
2021/12/14 13:53:48;;;;;;;14.95;1.65;;;;;;;;;;5005397;28;20040;-68
2021/12/14 13:56:19;;;;;;;10.80;1.20;;;;;;;;;;4988819;28;20037;-65
2021/12/14 13:58:46;;;;;;;8.52;0.95;;;;;;;;;;4992426;28;20518;-67
2021/12/14 14:01:24;;;;;;;12.82;1.50;;;;;;;;;;4994585;28;20030;-67
2021/12/14 14:03:55;;;;;;;6.53;0.90;;;;;;;;;;4997878;28;20069;-66
2021/12/14 14:06:22;;;;;;;10.37;1.20;;;;;;;;;;4994112;28;20030;-66
2021/12/14 14:09:15;;;;;;;19.77;1.40;;;;;;;;;;4999177;28;20034;-66
2021/12/14 14:11:42;;;;;;;11.73;1.33;;;;;;;;;;4999679;28;20045;-65
2021/12/14 14:14:19;;;;;;;8.90;1.10;;;;;;;;;;5000182;28;20142;-66
2021/12/14 14:16:50;;;;;;;13.55;1.10;;;;;;;;;;5001569;28;20030;-65
2021/12/14 14:19:20;;;;;;;8.90;1.00;;;;;;;;;;4997161;28;20667;-64
2021/12/14 14:21:52;;;;;;;13.18;1.02;;;;;;;;;;4999719;28;20109;-65
2021/12/14 14:24:22;;;;;;;3.67;0.88;;;;;;;;;;4999414;28;20038;-66
2021/12/14 14:26:49;;;;;;;6.88;0.80;;;;;;;;;;4995584;28;20030;-65
2021/12/14 14:29:18;;;;;;;5.13;0.93;;;;;;;;;;4998283;28;20074;-67
2021/12/14 14:31:50;;;;;;;4.40;0.73;;;;;;;;;;4998860;28;20030;-65
2021/12/14 14:34:22;;;;;;;8.32;1.42;;;;;;;;;;4997341;28;20030;-67
2021/12/14 14:36:49;;;;;;;;;;;;;;;;;;4994395;28;20485;-68
2021/12/14 14:39:17;;;;;;;6.07;0.73;;;;;;;;;;4992987;28;19924;-66
2021/12/14 14:41:46;;;;;;;6.45;0.77;;;;;;;;;;4996285;28;20026;-67
2021/12/14 14:44:26;;;;;;;4.65;1.02;;;;;;;;;;4991204;28;20375;-65
2021/12/14 14:47:08;;;;;;;3.42;0.50;;;;;;;;;;4999576;28;20022;-65
2021/12/14 14:49:38;;;;;;;5.03;0.95;;;;;;;;;;5000235;28;20382;-63
2021/12/14 14:52:08;;;;;;;3.75;0.75;;;;;;;;;;5021220;28;20018;-66
2021/12/14 14:54:35;;;;;;;5.75;0.70;;;;;;;;;;4998058;28;20390;-62
2021/12/14 14:57:11;;;;;;;7.85;1.20;;;;;;;;;;5001338;28;20053;-65
2021/12/14 14:59:40;;;;;;;14.05;1.00;;;;;;;;;;5002258;28;20030;-65
2021/12/14 15:02:08;;;;;;;4.05;0.73;;;;;;;;;;5001080;28;20041;-64
2021/12/14 15:04:53;;;;;;;7.47;0.77;;;;;;;;;;5002241;28;20034;-63
2021/12/14 15:07:20;;;;;;;9.13;0.70;;;;;;;;;;4996276;28;20033;-63
2021/12/14 15:09:47;;;;;;;8.48;1.13;;;;;;;;;;5004122;28;20033;-60
2021/12/14 15:12:20;;;;;;;3.83;0.50;;;;;;;;;;4999417;28;20500;-67
2021/12/14 15:14:47;;;;;;;9.35;0.90;;;;;;;;;;4994588;28;20049;-60
2021/12/14 15:17:16;;;;;;;3.97;0.88;;;;;;;;;;5003886;28;20492;-59
2021/12/14 15:19:43;;;;;;;5.75;1.08;;;;;;;;;;5003628;28;20608;-64
2021/12/14 15:22:16;;;;;;;4.75;1.00;;;;;;;;;;4997718;28;20034;-64
2021/12/14 15:24:44;;;;;;;5.07;0.65;;;;;;;;;;5004489;28;20058;-63
2021/12/14 15:27:13;;;;;;;5.05;0.80;;;;;;;;;;4994375;28;20727;-63
2021/12/14 15:29:43;;;;;;;4.75;0.80;;;;;;;;;;4994305;28;20026;-68
2021/12/14 15:32:19;;;;;;;3.08;0.60;;;;;;;;;;4997021;28;20822;-65
2021/12/14 15:34:53;;;;;;;10.90;0.80;;;;;;;;;;4994410;28;20031;-63
2021/12/14 15:37:39;;;;;;;5.28;0.80;;;;;;;;;;4997493;28;20022;-62
2021/12/14 15:40:12;;;;;;;13.25;1.00;;;;;;;;;;5000787;28;20478;-61
2021/12/14 15:42:41;;;;;;;3.33;0.73;;;;;;;;;;4998121;28;20057;-60
2021/12/14 15:45:10;;;;;;;12.88;1.05;;;;;;;;;;4995960;28;20529;-61